Time;durP1;ratioP1;P1;durP2;ratioP2;P2;SDS_P1;SDS_P2;PMS_P1;PMS_P2;Temp;Humidity;BMP_temperature;BMP_pressure;BME280_temperature;BME280_humidity;BME280_pressure;Samples;Min_cycle;Max_cycle;Signal;HPM_P1;HPM_P2
2021/06/04 00:01:47;;;;;;;7.83;0.50;;;;;;;21.60;49.01;100816.38;5078120;28;20090;-31
2021/06/04 00:04:14;;;;;;;0.00;0.00;;;;;;;21.59;49.04;100825.25;5080014;28;20323;-31
2021/06/04 00:06:40;;;;;;;0.85;0.60;;;;;;;21.63;48.94;100818.94;5078776;28;20289;-30
2021/06/04 00:09:08;;;;;;;0.67;0.23;;;;;;;21.67;48.95;100822.38;5081164;28;20036;-30
2021/06/04 00:11:43;;;;;;;0.68;0.55;;;;;;;21.66;48.99;100816.19;5078236;28;20031;-30
2021/06/04 00:14:13;;;;;;;0.57;0.35;;;;;;;21.71;48.81;100824.03;5077019;28;20468;-29
2021/06/04 00:16:42;;;;;;;0.52;0.52;;;;;;;21.76;48.75;100816.78;5080221;28;20097;-30
2021/06/04 00:19:13;;;;;;;1.85;0.45;;;;;;;21.74;49.06;100815.94;5080931;28;20461;-29
2021/06/04 00:21:42;;;;;;;1.70;0.50;;;;;;;21.74;48.84;100821.28;5078738;28;20059;-31
2021/06/04 00:24:09;;;;;;;0.30;0.30;;;;;;;21.78;48.83;100827.38;5079461;28;20546;-30
2021/06/04 00:26:35;;;;;;;0.67;0.63;;;;;;;21.78;48.84;100819.41;5077671;28;20469;-31
2021/06/04 00:29:02;;;;;;;0.20;0.20;;;;;;;21.81;48.73;100817.53;5077564;28;20455;-30
2021/06/04 00:31:28;;;;;;;1.20;0.22;;;;;;;21.82;48.68;100815.75;5078737;28;20028;-30
2021/06/04 00:33:54;;;;;;;0.50;0.20;;;;;;;21.87;48.57;100824.44;5079120;28;20032;-31
2021/06/04 00:36:23;;;;;;;0.20;0.13;;;;;;;21.84;48.70;100820.13;5077533;28;20115;-31
2021/06/04 00:38:49;;;;;;;0.88;0.40;;;;;;;21.89;48.60;100822.63;5082627;28;20047;-30
2021/06/04 00:41:18;;;;;;;2.23;0.43;;;;;;;21.86;48.70;100828.03;5079132;28;20025;-30
2021/06/04 00:43:45;;;;;;;1.15;0.70;;;;;;;21.88;48.56;100815.53;5080928;28;20021;-30
2021/06/04 00:46:11;;;;;;;0.80;0.50;;;;;;;21.88;48.56;100811.09;5077397;28;20069;-32
2021/06/04 00:48:37;;;;;;;0.50;0.20;;;;;;;21.85;48.53;100805.88;5074429;28;20054;-30
2021/06/04 00:51:11;;;;;;;0.10;0.10;;;;;;;21.85;48.72;100805.88;5074425;28;20371;-32
2021/06/04 00:53:37;;;;;;;0.43;0.43;;;;;;;21.91;48.61;100807.50;5078621;28;20032;-31
2021/06/04 00:56:04;;;;;;;0.25;0.22;;;;;;;21.96;48.54;100793.13;5078123;28;20028;-30
2021/06/04 00:58:40;;;;;;;0.38;0.30;;;;;;;22.01;48.38;100786.81;5081865;28;20047;-31
2021/06/04 01:01:06;;;;;;;0.80;0.60;;;;;;;21.96;48.36;100794.91;5078742;28;20182;-30
2021/06/04 01:03:34;;;;;;;0.73;0.57;;;;;;;21.91;48.44;100804.84;5079755;28;20414;-33
2021/06/04 01:06:23;;;;;;;0.60;0.57;;;;;;;21.95;48.34;100796.72;5083220;28;20039;-29
2021/06/04 01:08:54;;;;;;;0.43;0.38;;;;;;;21.99;48.27;100802.81;5069421;28;20115;-30
2021/06/04 01:11:37;;;;;;;13.00;1.27;;;;;;;22.02;48.04;100796.53;5085905;28;20016;-30
2021/06/04 01:14:12;;;;;;;0.73;0.52;;;;;;;22.04;47.97;100795.56;5080520;28;20357;-30
2021/06/04 01:17:01;;;;;;;2.20;0.50;;;;;;;21.95;48.22;100798.50;5084931;28;20115;-30
2021/06/04 01:19:44;;;;;;;0.55;0.30;;;;;;;21.90;48.43;100817.25;5069228;28;20029;-29
2021/06/04 01:22:25;;;;;;;2.95;0.47;;;;;;;21.94;48.25;100821.56;5086060;28;20020;-29
2021/06/04 01:25:20;;;;;;;0.13;0.03;;;;;;;21.90;48.49;100811.06;5070291;28;20028;-30
2021/06/04 01:27:47;;;;;;;0.45;0.43;;;;;;;21.89;48.32;100826.16;5076743;28;20040;-30
2021/06/04 01:30:22;;;;;;;;;;;;;;;21.92;48.53;100814.53;5069153;28;20481;-30
2021/06/04 01:32:50;;;;;;;0.90;0.38;;;;;;;21.89;48.44;100823.50;5086675;28;19912;-31
2021/06/04 01:35:21;;;;;;;1.35;0.47;;;;;;;21.92;48.30;100818.06;5086423;28;20016;-30
2021/06/04 01:37:47;;;;;;;0.10;0.10;;;;;;;21.89;48.45;100822.63;5069850;28;20127;-34
2021/06/04 01:40:25;;;;;;;0.30;0.30;;;;;;;21.89;47.99;100826.16;5064243;28;20073;-30
2021/06/04 01:42:51;;;;;;;5.03;0.60;;;;;;;21.88;47.82;100818.22;5078963;28;20036;-32
2021/06/04 01:45:23;;;;;;;3.67;0.73;;;;;;;21.92;48.21;100822.53;5078670;28;20055;-29
2021/06/04 01:47:56;;;;;;;0.05;0.05;;;;;;;21.92;48.30;100830.50;5068776;28;20033;-29
2021/06/04 01:50:34;;;;;;;3.53;0.80;;;;;;;21.94;48.48;100828.69;5068277;28;20123;-30
2021/06/04 01:53:08;;;;;;;8.95;0.38;;;;;;;21.90;48.26;100824.38;5078603;28;20354;-30
2021/06/04 01:55:36;;;;;;;2.58;0.73;;;;;;;21.88;48.20;100828.84;5067933;28;20023;-29
2021/06/04 01:58:06;;;;;;;2.13;0.30;;;;;;;21.84;48.18;100822.78;5067903;28;20031;-32
2021/06/04 02:00:47;;;;;;;3.40;1.10;;;;;;;21.94;48.13;100836.66;5067600;28;20020;-33
2021/06/04 02:03:14;;;;;;;0.25;0.20;;;;;;;21.97;48.02;100834.75;5082361;28;20048;-30
2021/06/04 02:05:41;;;;;;;2.70;0.90;;;;;;;21.96;48.16;100830.38;5081168;28;20028;-30
2021/06/04 02:08:10;;;;;;;3.20;1.55;;;;;;;21.96;48.18;100837.47;5084548;28;20031;-29
2021/06/04 02:10:39;;;;;;;46.53;1.40;;;;;;;21.89;48.13;100841.25;5083732;28;20066;-29
2021/06/04 02:13:05;;;;;;;1.77;1.40;;;;;;;21.92;47.95;100842.00;5082621;28;20470;-32
2021/06/04 02:15:33;;;;;;;3.45;0.73;;;;;;;21.90;48.04;100845.66;5075027;28;20024;-29
2021/06/04 02:18:28;;;;;;;1.13;0.80;;;;;;;21.91;47.89;100844.72;5079837;28;20123;-29
2021/06/04 02:21:07;;;;;;;0.68;0.45;;;;;;;21.92;47.91;100839.34;5069695;28;21518;-29
2021/06/04 02:23:49;;;;;;;22.05;0.52;;;;;;;21.86;48.18;100841.31;5062636;28;20107;-29
2021/06/04 02:26:33;;;;;;;0.20;0.20;;;;;;;21.89;48.02;100846.56;5063174;28;20103;-29
2021/06/04 02:29:06;;;;;;;0.55;0.47;;;;;;;21.85;48.03;100848.44;5083394;28;20040;-29
2021/06/04 02:31:46;;;;;;;0.20;0.17;;;;;;;21.85;48.04;100853.75;5081022;28;20031;-29
2021/06/04 02:34:28;;;;;;;0.00;0.00;;;;;;;21.89;47.84;100854.56;5069609;28;20028;-30
2021/06/04 02:36:57;;;;;;;0.10;0.05;;;;;;;21.88;47.87;100863.41;5065001;28;20056;-29
2021/06/04 02:39:50;;;;;;;0.05;0.03;;;;;;;21.88;47.81;100863.41;5078412;28;20078;-30
2021/06/04 02:42:22;;;;;;;6.60;0.90;;;;;;;21.87;47.67;100867.00;5069468;28;20039;-29
2021/06/04 02:45:02;;;;;;;1.30;0.95;;;;;;;21.75;47.53;100841.66;5064683;28;20024;-29
2021/06/04 02:47:32;;;;;;;1.92;0.52;;;;;;;21.94;47.38;100871.25;5082714;28;20028;-30
2021/06/04 02:50:00;;;;;;;0.88;0.57;;;;;;;21.87;47.55;100862.56;5064595;28;20035;-29
2021/06/04 02:52:41;;;;;;;0.10;0.10;;;;;;;21.86;47.69;100865.25;5079057;28;20107;-30
2021/06/04 02:55:14;;;;;;;11.93;0.38;;;;;;;21.83;47.71;100860.03;5082514;28;20016;-30
2021/06/04 02:57:40;;;;;;;0.93;0.60;;;;;;;21.83;47.61;100865.34;5081895;28;20020;-29
2021/06/04 03:00:11;;;;;;;3.20;0.50;;;;;;;21.81;47.83;100865.41;5083978;28;20102;-30
2021/06/04 03:02:38;;;;;;;5.70;0.60;;;;;;;21.81;47.90;100867.19;5082379;28;20039;-31
2021/06/04 03:05:09;;;;;;;0.57;0.43;;;;;;;21.84;47.70;100867.06;5075160;28;20446;-29
2021/06/04 03:07:36;;;;;;;0.57;0.30;;;;;;;21.83;47.65;100865.34;5082693;28;20030;-29
2021/06/04 03:10:12;;;;;;;0.70;0.40;;;;;;;21.88;47.51;100863.41;5077268;28;20068;-29
2021/06/04 03:12:41;;;;;;;4.30;0.43;;;;;;;21.84;47.66;100872.41;5077948;28;20024;-29
2021/06/04 03:15:49;;;;;;;5.53;0.93;;;;;;;21.79;47.69;100871.66;5080691;28;20024;-30
2021/06/04 03:18:18;;;;;;;0.47;0.47;;;;;;;21.76;47.92;100875.28;5084274;28;20032;-29
2021/06/04 03:20:45;;;;;;;6.75;0.77;;;;;;;21.76;47.87;100875.28;5077320;28;20012;-30
2021/06/04 03:23:14;;;;;;;2.03;0.45;;;;;;;21.75;47.87;100878.88;5078932;28;20451;-31
2021/06/04 03:25:42;;;;;;;0.43;0.43;;;;;;;21.76;47.84;100877.94;5077585;28;20082;-29
2021/06/04 03:28:12;;;;;;;0.00;0.00;;;;;;;21.73;48.01;100878.91;5067087;28;20032;-30
2021/06/04 03:30:39;;;;;;;0.40;0.20;;;;;;;21.68;47.44;100866.66;5077585;28;20032;-29
2021/06/04 03:33:06;;;;;;;1.45;0.55;;;;;;;21.76;47.58;100883.28;5078936;28;20063;-29
2021/06/04 03:35:32;;;;;;;0.90;0.77;;;;;;;21.70;47.61;100881.66;5081971;28;20043;-29
2021/06/04 03:37:59;;;;;;;3.07;0.73;;;;;;;21.71;47.47;100886.06;5077697;28;20032;-29
2021/06/04 03:40:27;;;;;;;0.30;0.22;;;;;;;21.68;47.85;100888.78;5080870;28;20060;-29
2021/06/04 03:42:54;;;;;;;5.00;1.83;;;;;;;21.69;47.79;100887.88;5079392;28;20051;-31
2021/06/04 03:45:25;;;;;;;0.22;0.20;;;;;;;21.69;47.82;100895.84;5080375;28;20062;-29
2021/06/04 03:47:51;;;;;;;1.02;0.47;;;;;;;21.67;47.85;100902.13;5076008;28;20117;-29
2021/06/04 03:50:17;;;;;;;0.30;0.20;;;;;;;21.66;47.91;100901.28;5083504;28;20031;-29
2021/06/04 03:52:43;;;;;;;0.00;0.00;;;;;;;21.65;47.91;100906.63;5082925;28;20314;-29
2021/06/04 03:55:11;;;;;;;0.63;0.60;;;;;;;21.64;47.67;100907.53;5082917;28;20434;-32
2021/06/04 03:57:37;;;;;;;0.10;0.10;;;;;;;21.64;47.71;100912.84;5081617;28;20043;-29
2021/06/04 04:00:18;;;;;;;0.17;0.17;;;;;;;21.64;47.62;100919.03;5081077;28;20031;-29
2021/06/04 04:02:44;;;;;;;4.35;0.77;;;;;;;21.66;47.55;100922.53;5081837;28;20454;-29
2021/06/04 04:05:11;;;;;;;1.27;0.98;;;;;;;21.65;47.71;100922.59;5082003;28;20499;-29
2021/06/04 04:07:40;;;;;;;5.72;0.38;;;;;;;21.63;47.95;100929.72;5082755;28;20454;-29
2021/06/04 04:10:08;;;;;;;1.75;0.45;;;;;;;21.62;47.66;100934.16;5082188;28;20028;-29
2021/06/04 04:12:34;;;;;;;7.35;0.45;;;;;;;21.65;47.62;100944.72;5081982;28;20030;-29
2021/06/04 04:15:00;;;;;;;0.00;0.00;;;;;;;21.62;47.69;100941.28;5097132;28;20484;-30
2021/06/04 04:17:29;;;;;;;0.53;0.50;;;;;;;21.60;47.66;100946.63;5080719;28;20450;-29
2021/06/04 04:19:56;;;;;;;0.90;0.40;;;;;;;21.59;47.65;100949.31;5081747;28;20085;-30
2021/06/04 04:22:22;;;;;;;0.30;0.30;;;;;;;21.60;47.67;100953.72;5080774;28;20032;-29
2021/06/04 04:24:48;;;;;;;3.00;0.68;;;;;;;21.68;47.43;100952.59;5082976;28;20442;-32
2021/06/04 04:27:15;;;;;;;1.47;0.33;;;;;;;21.69;47.42;100957.00;5082047;28;20020;-30
2021/06/04 04:29:41;;;;;;;3.57;0.93;;;;;;;21.72;47.40;100948.94;5082128;28;20078;-30
2021/06/04 04:32:13;;;;;;;2.23;0.53;;;;;;;21.69;47.59;100957.00;5081918;28;20020;-29
2021/06/04 04:34:43;;;;;;;0.65;0.45;;;;;;;21.69;47.38;100950.81;5082262;28;20711;-31
2021/06/04 04:37:09;;;;;;;0.52;0.38;;;;;;;21.70;47.46;100947.25;5081070;28;20093;-29
2021/06/04 04:39:37;;;;;;;2.55;1.15;;;;;;;21.71;47.54;100957.84;5082464;28;20028;-29
2021/06/04 04:42:05;;;;;;;1.95;0.75;;;;;;;21.71;47.55;100956.97;5077742;28;20071;-29
2021/06/04 04:44:33;;;;;;;0.47;0.40;;;;;;;21.69;47.64;100956.13;5083127;28;20028;-29
2021/06/04 04:46:59;;;;;;;0.88;0.47;;;;;;;21.69;47.78;100962.31;5084150;28;20024;-29
2021/06/04 04:49:26;;;;;;;1.40;0.93;;;;;;;21.68;47.83;100955.25;5082559;28;20024;-30
2021/06/04 04:51:52;;;;;;;0.25;0.22;;;;;;;21.70;47.93;100964.09;5087095;28;20064;-29
2021/06/04 04:54:18;;;;;;;0.93;0.60;;;;;;;21.71;48.01;100964.94;5083905;28;20021;-33
2021/06/04 04:56:47;;;;;;;1.85;0.57;;;;;;;21.71;47.83;100965.81;5080207;28;20608;-29
2021/06/04 04:59:14;;;;;;;0.47;0.47;;;;;;;21.70;47.90;100973.84;5061327;28;20029;-31
2021/06/04 05:01:40;;;;;;;0.40;0.38;;;;;;;21.69;47.89;100974.75;5058494;28;20090;-29
2021/06/04 05:04:06;;;;;;;5.70;0.70;;;;;;;21.68;47.88;100984.50;5063197;28;20029;-30
2021/06/04 05:06:33;;;;;;;18.52;0.43;;;;;;;21.69;47.80;100988.91;5062984;28;20375;-30
2021/06/04 05:08:59;;;;;;;5.18;0.80;;;;;;;21.64;47.88;100976.66;5069810;28;21640;-29
2021/06/04 05:11:25;;;;;;;0.57;0.30;;;;;;;21.64;48.11;100988.16;5078575;28;20035;-29
2021/06/04 05:13:51;;;;;;;0.50;0.20;;;;;;;21.66;48.27;100999.63;5066805;28;20413;-29
2021/06/04 05:16:17;;;;;;;2.43;0.73;;;;;;;21.65;48.18;101000.56;5057771;28;20017;-29
2021/06/04 05:18:44;;;;;;;2.90;2.00;;;;;;;21.66;48.32;101004.09;5061526;28;20269;-30
2021/06/04 05:21:11;;;;;;;2.57;0.27;;;;;;;21.75;47.98;101013.63;5057326;28;20028;-31
2021/06/04 05:23:37;;;;;;;0.20;0.20;;;;;;;21.68;48.12;101010.22;5060814;28;20360;-30
2021/06/04 05:26:03;;;;;;;0.20;0.20;;;;;;;21.66;48.22;101015.59;5076221;28;20032;-30
2021/06/04 05:28:30;;;;;;;0.63;0.43;;;;;;;21.65;48.16;101008.53;5069537;28;20036;-31
2021/06/04 05:30:59;;;;;;;0.52;0.20;;;;;;;21.65;48.05;101005.00;5073109;28;20135;-29
2021/06/04 05:33:32;;;;;;;1.17;0.40;;;;;;;21.65;47.99;101007.66;5064354;28;20036;-30
2021/06/04 05:36:05;;;;;;;1.48;0.93;;;;;;;21.63;48.20;101018.31;5066657;28;20021;-30
2021/06/04 05:38:31;;;;;;;1.75;0.68;;;;;;;21.64;48.05;101027.16;5061983;28;20028;-30
2021/06/04 05:40:57;;;;;;;0.03;0.03;;;;;;;21.64;47.89;101019.19;5060631;28;20021;-31
2021/06/04 05:43:27;;;;;;;1.73;1.60;;;;;;;21.59;48.05;101011.31;5056039;28;20029;-29
2021/06/04 05:45:54;;;;;;;0.20;0.20;;;;;;;21.64;47.65;101019.19;5062335;28;20024;-31
2021/06/04 05:48:21;;;;;;;0.22;0.22;;;;;;;21.62;47.90;101023.69;5073752;28;20367;-31
2021/06/04 05:50:49;;;;;;;4.28;0.57;;;;;;;21.60;47.73;101018.41;5056736;28;20062;-32
2021/06/04 05:53:16;;;;;;;0.20;0.13;;;;;;;21.60;47.71;101014.84;5067889;28;20116;-30
2021/06/04 05:55:43;;;;;;;12.88;0.45;;;;;;;21.57;47.71;101023.78;5061018;28;20029;-31
2021/06/04 05:58:11;;;;;;;0.27;0.27;;;;;;;21.56;47.79;101031.81;5068004;28;20032;-29
2021/06/04 06:00:44;;;;;;;6.53;1.42;;;;;;;21.54;47.73;101031.84;5074106;28;20508;-32
2021/06/04 06:03:11;;;;;;;2.28;1.05;;;;;;;21.55;47.82;101035.38;5056633;28;20483;-29
2021/06/04 06:05:37;;;;;;;0.40;0.40;;;;;;;21.54;47.76;101036.28;5055143;28;20036;-30
2021/06/04 06:08:04;;;;;;;0.40;0.40;;;;;;;21.54;47.73;101033.63;5056746;28;20021;-31
2021/06/04 06:10:30;;;;;;;;;;;;;;;21.54;47.68;101038.94;5056675;28;20056;-30
2021/06/04 06:12:56;;;;;;;1.20;0.35;;;;;;;21.52;47.65;101035.47;5056014;28;19971;-31
2021/06/04 06:15:23;;;;;;;10.17;1.27;;;;;;;21.51;47.50;101039.00;5061428;28;20017;-30
2021/06/04 06:17:50;;;;;;;;;;;;;;;21.51;47.53;101041.66;5072737;28;20291;-31
2021/06/04 06:20:17;;;;;;;1.17;0.30;;;;;;;21.48;47.60;101029.34;5067082;28;19931;-30
2021/06/04 06:22:43;;;;;;;2.38;0.52;;;;;;;21.47;47.63;101041.75;5059919;28;20033;-30
2021/06/04 06:25:12;;;;;;;0.20;0.20;;;;;;;21.46;47.63;101036.50;5060893;28;20096;-30
2021/06/04 06:27:38;;;;;;;6.03;0.43;;;;;;;21.42;47.64;101037.47;5064707;28;20025;-31
2021/06/04 06:30:06;;;;;;;0.63;0.43;;;;;;;21.41;47.80;101036.59;5073751;28;20074;-31
2021/06/04 06:32:32;;;;;;;1.83;0.40;;;;;;;21.40;47.54;101037.50;5056818;28;20281;-32
2021/06/04 06:35:00;;;;;;;1.17;0.90;;;;;;;21.42;47.47;101037.47;5056027;28;20017;-29
2021/06/04 06:37:26;;;;;;;1.40;0.30;;;;;;;21.45;47.19;101048.00;5075552;28;20420;-29
2021/06/04 06:39:52;;;;;;;1.25;0.60;;;;;;;21.42;47.32;101045.44;5058411;28;20442;-29
2021/06/04 06:42:18;;;;;;;4.60;1.70;;;;;;;21.40;47.46;101041.94;5060782;28;20028;-31
2021/06/04 06:44:44;;;;;;;0.90;0.43;;;;;;;21.38;47.53;101041.13;5071214;28;20039;-29
2021/06/04 06:47:11;;;;;;;2.20;0.38;;;;;;;21.37;47.52;101052.66;5067770;28;20277;-31
2021/06/04 06:49:37;;;;;;;2.17;1.02;;;;;;;21.36;47.59;101041.13;5062640;28;20401;-31
2021/06/04 06:52:03;;;;;;;3.63;0.67;;;;;;;21.34;47.59;101048.28;5061884;28;20025;-31
2021/06/04 06:54:31;;;;;;;1.17;0.55;;;;;;;21.29;47.56;101060.75;5071213;28;20012;-31
2021/06/04 06:56:59;;;;;;;2.55;0.95;;;;;;;21.30;47.61;101049.22;5062557;28;20359;-29
2021/06/04 06:59:26;;;;;;;;;;;;;;;21.31;47.43;101045.69;5068280;28;20028;-31
2021/06/04 07:01:52;;;;;;;3.80;0.60;;;;;;;21.33;47.45;101050.97;5064911;28;19943;-30
2021/06/04 07:04:18;;;;;;;4.63;0.77;;;;;;;21.34;47.31;101047.41;5059950;28;20047;-29
2021/06/04 07:06:44;;;;;;;8.52;1.02;;;;;;;21.29;47.47;101044.81;5055993;28;20045;-30
2021/06/04 07:09:13;;;;;;;8.25;0.52;;;;;;;21.26;47.43;101044.00;5059733;28;20370;-30
2021/06/04 07:11:42;;;;;;;2.72;0.60;;;;;;;21.27;47.48;101053.72;5069743;28;20031;-30
2021/06/04 07:14:09;;;;;;;0.10;0.10;;;;;;;21.23;47.66;101051.16;5055864;28;20466;-29
2021/06/04 07:16:36;;;;;;;0.15;0.15;;;;;;;21.20;47.55;101051.22;5054793;28;20115;-30
2021/06/04 07:19:03;;;;;;;0.10;0.10;;;;;;;21.19;47.59;101048.59;5078904;28;20032;-29
2021/06/04 07:21:29;;;;;;;0.73;0.60;;;;;;;21.16;47.51;101049.53;5067694;28;20024;-30
2021/06/04 07:23:56;;;;;;;1.17;1.00;;;;;;;21.17;47.53;101056.63;5064768;28;20408;-29
2021/06/04 07:26:22;;;;;;;0.00;0.00;;;;;;;21.17;47.36;101056.63;5067328;28;20488;-31
2021/06/04 07:28:49;;;;;;;1.43;0.27;;;;;;;21.21;47.39;101060.06;5061785;28;20033;-31
2021/06/04 07:31:16;;;;;;;1.42;1.15;;;;;;;21.19;47.43;101065.41;5071989;28;20061;-29
2021/06/04 07:33:44;;;;;;;0.95;0.85;;;;;;;21.16;47.47;101069.91;5068670;28;20025;-32
2021/06/04 07:36:14;;;;;;;2.85;0.63;;;;;;;21.17;47.41;101067.25;5058273;28;20093;-29
2021/06/04 07:38:40;;;;;;;0.13;0.13;;;;;;;21.18;47.27;101065.47;5069675;28;20037;-30
2021/06/04 07:41:07;;;;;;;0.97;0.33;;;;;;;21.12;47.55;101068.25;5055043;28;20470;-30
2021/06/04 07:43:35;;;;;;;2.47;0.93;;;;;;;21.09;47.36;101069.19;5069999;28;20277;-30
2021/06/04 07:46:02;;;;;;;1.45;0.98;;;;;;;21.10;47.46;101073.59;5054884;28;20033;-30
2021/06/04 07:48:28;;;;;;;1.55;0.75;;;;;;;21.14;47.13;101071.75;5058809;28;20052;-31
2021/06/04 07:50:55;;;;;;;10.85;0.30;;;;;;;21.13;47.31;101073.53;5061682;28;20052;-30
2021/06/04 07:53:25;;;;;;;6.65;1.08;;;;;;;21.08;47.52;101082.50;5073385;28;20017;-30
2021/06/04 07:55:51;;;;;;;3.15;1.10;;;;;;;21.05;47.56;101083.44;5069621;28;20029;-30
2021/06/04 07:58:18;;;;;;;3.08;0.45;;;;;;;21.04;47.47;101092.34;5070751;28;20096;-33
2021/06/04 08:00:44;;;;;;;1.33;0.47;;;;;;;21.03;47.43;101090.59;5067057;28;20036;-31
2021/06/04 08:03:10;;;;;;;0.90;0.60;;;;;;;20.99;47.40;101082.72;5063485;28;20024;-31
2021/06/04 08:05:37;;;;;;;1.48;0.95;;;;;;;20.98;47.39;101092.44;5071299;28;20029;-31
2021/06/04 08:08:05;;;;;;;0.77;0.10;;;;;;;20.99;47.25;101093.34;5065687;28;20432;-31
2021/06/04 08:10:33;;;;;;;0.25;0.25;;;;;;;21.04;47.16;101087.03;5054708;28;20043;-31
2021/06/04 08:13:00;;;;;;;6.45;1.88;;;;;;;21.02;47.31;101094.13;5057962;28;20036;-31
2021/06/04 08:15:34;;;;;;;3.42;1.35;;;;;;;21.00;47.30;101093.31;5072856;28;20442;-31
2021/06/04 08:18:00;;;;;;;2.53;1.55;;;;;;;20.99;47.44;101094.22;5069285;28;20032;-32
2021/06/04 08:20:29;;;;;;;4.80;1.60;;;;;;;20.95;47.42;101092.53;5060974;28;20040;-33
2021/06/04 08:23:00;;;;;;;6.93;1.30;;;;;;;20.90;47.38;101094.41;5054309;28;20032;-30
2021/06/04 08:25:29;;;;;;;0.63;0.17;;;;;;;20.86;47.63;101092.72;5058496;28;20068;-31
2021/06/04 08:27:55;;;;;;;5.25;1.10;;;;;;;20.86;47.50;101088.28;5067447;28;20040;-30
2021/06/04 08:30:22;;;;;;;1.65;0.40;;;;;;;20.88;47.36;101086.47;5059225;28;20033;-31
2021/06/04 08:32:48;;;;;;;0.45;0.45;;;;;;;20.93;47.39;101084.56;5069896;28;20083;-30
2021/06/04 08:35:15;;;;;;;0.27;0.20;;;;;;;20.93;47.25;101091.66;5064972;28;20017;-30
2021/06/04 08:37:41;;;;;;;14.35;2.65;;;;;;;20.88;47.39;101088.25;5069373;28;20038;-31
2021/06/04 08:40:10;;;;;;;1.13;0.65;;;;;;;20.89;47.25;101087.34;5061434;28;20024;-32
2021/06/04 08:42:59;;;;;;;1.92;0.88;;;;;;;20.83;47.42;101084.81;5053857;28;20029;-32
2021/06/04 08:45:38;;;;;;;7.47;0.40;;;;;;;20.90;47.39;101091.75;5066344;28;20040;-30
2021/06/04 08:48:29;;;;;;;0.00;0.00;;;;;;;20.80;47.41;101082.25;5052835;28;20029;-30
2021/06/04 08:51:15;;;;;;;0.90;0.47;;;;;;;20.74;47.56;101088.53;5054112;28;20037;-32
2021/06/04 08:53:56;;;;;;;0.10;0.10;;;;;;;20.78;47.37;101100.84;5039093;28;20029;-32
2021/06/04 08:56:36;;;;;;;0.80;0.32;;;;;;;20.79;47.31;101097.28;5074471;28;20082;-30
2021/06/04 08:59:09;;;;;;;6.53;0.68;;;;;;;20.76;47.56;101096.47;5071028;28;20028;-32
2021/06/04 09:01:53;;;;;;;0.40;0.40;;;;;;;20.79;47.62;101101.72;5061124;28;20032;-31
2021/06/04 09:04:25;;;;;;;4.93;0.77;;;;;;;20.77;47.49;101104.41;5082420;28;20021;-31
2021/06/04 09:07:10;;;;;;;0.93;0.10;;;;;;;20.72;47.57;101108.94;5066667;28;20032;-31
2021/06/04 09:09:57;;;;;;;1.20;0.65;;;;;;;20.71;47.64;101104.53;5072825;28;20035;-32
2021/06/04 09:12:48;;;;;;;3.65;0.50;;;;;;;20.64;47.71;101102.91;5072996;28;20035;-31
2021/06/04 09:15:23;;;;;;;2.08;0.75;;;;;;;20.63;47.55;101117.09;5063465;28;20027;-30
2021/06/04 09:18:11;;;;;;;4.55;1.13;;;;;;;20.70;47.42;101114.28;5057242;28;20044;-30
2021/06/04 09:21:00;;;;;;;1.08;0.70;;;;;;;20.73;47.42;101112.47;5062073;28;20025;-30
2021/06/04 09:23:37;;;;;;;0.65;0.65;;;;;;;20.65;47.65;101102.88;5066932;28;20039;-31
2021/06/04 09:26:05;;;;;;;0.13;0.13;;;;;;;20.65;47.54;101110.84;5058589;28;20029;-30
2021/06/04 09:28:32;;;;;;;5.05;1.27;;;;;;;20.60;47.69;101107.38;5069519;28;20035;-32
2021/06/04 09:31:17;;;;;;;1.20;0.43;;;;;;;20.62;47.71;101113.56;5076992;28;20103;-31
2021/06/04 09:33:52;;;;;;;0.00;0.00;;;;;;;20.58;47.77;101109.22;5076397;28;20116;-31
2021/06/04 09:36:21;;;;;;;2.53;0.75;;;;;;;20.57;47.65;101115.44;5077251;28;20017;-31
2021/06/04 09:38:49;;;;;;;6.82;0.95;;;;;;;20.58;47.63;101103.91;5058524;28;20028;-31
2021/06/04 09:41:27;;;;;;;0.00;0.00;;;;;;;20.54;47.66;101107.53;5077355;28;20454;-31
2021/06/04 09:44:04;;;;;;;0.03;0.03;;;;;;;20.60;47.62;101110.03;5069411;28;20043;-30
2021/06/04 09:46:53;;;;;;;0.45;0.45;;;;;;;20.57;47.64;101112.78;5058987;28;20025;-31
2021/06/04 09:49:32;;;;;;;0.08;0.08;;;;;;;20.64;47.40;101119.69;5050572;28;20048;-29
2021/06/04 09:52:22;;;;;;;9.55;0.40;;;;;;;20.52;47.68;101114.66;5062512;28;20028;-30
2021/06/04 09:55:16;;;;;;;2.92;0.88;;;;;;;20.55;47.73;101111.03;5059442;28;20032;-33
2021/06/04 09:58:01;;;;;;;0.20;0.20;;;;;;;20.47;47.87;101111.22;5075526;28;20036;-30
2021/06/04 10:00:30;;;;;;;0.00;0.00;;;;;;;20.41;48.12;101116.56;5067454;28;20047;-30
2021/06/04 10:03:20;;;;;;;0.93;0.57;;;;;;;20.48;47.83;101120.03;5075663;28;20028;-30
2021/06/04 10:05:46;;;;;;;2.65;0.70;;;;;;;20.38;47.76;101106.03;5056519;28;20106;-29
2021/06/04 10:08:18;;;;;;;1.17;0.47;;;;;;;20.47;47.76;101121.81;5068928;28;20029;-32
2021/06/04 10:10:45;;;;;;;0.10;0.10;;;;;;;20.52;47.52;101119.09;5057823;28;20047;-30
2021/06/04 10:13:26;;;;;;;0.53;0.40;;;;;;;20.48;47.61;101106.78;5057939;28;20112;-30
2021/06/04 10:15:53;;;;;;;8.65;1.73;;;;;;;20.44;47.66;101112.09;5076577;28;20402;-31
2021/06/04 10:18:31;;;;;;;0.82;0.80;;;;;;;20.43;47.75;101110.34;5073391;28;20066;-32
2021/06/04 10:21:24;;;;;;;0.63;0.40;;;;;;;20.43;47.73;101110.34;5056908;28;20021;-30
2021/06/04 10:23:51;;;;;;;0.00;0.00;;;;;;;20.34;47.66;101099.91;5062901;28;20409;-32
2021/06/04 10:26:28;;;;;;;0.30;0.30;;;;;;;20.35;47.95;101120.22;5062024;28;20032;-30
2021/06/04 10:29:13;;;;;;;0.73;0.45;;;;;;;20.40;47.57;101126.31;5073715;28;20031;-31
2021/06/04 10:31:52;;;;;;;0.68;0.52;;;;;;;20.38;47.72;101117.53;5062844;28;20477;-30
2021/06/04 10:34:31;;;;;;;7.22;0.25;;;;;;;20.44;47.72;101129.81;5056835;28;20039;-29
2021/06/04 10:36:58;;;;;;;2.17;0.25;;;;;;;20.37;47.75;101122.88;5055879;28;20083;-30
2021/06/04 10:39:30;;;;;;;0.17;0.10;;;;;;;20.31;48.08;101125.63;5061243;28;20464;-32
2021/06/04 10:42:08;;;;;;;0.68;0.43;;;;;;;20.35;47.76;101116.69;5076079;28;20346;-30
2021/06/04 10:44:59;;;;;;;0.52;0.20;;;;;;;20.31;47.84;101123.84;5076408;28;20120;-29
2021/06/04 10:47:43;;;;;;;3.20;1.02;;;;;;;20.34;47.78;101120.25;5070476;28;20044;-30
2021/06/04 10:50:13;;;;;;;0.38;0.20;;;;;;;20.28;48.03;101118.59;5063552;28;20028;-31
2021/06/04 10:53:30;;;;;;;2.47;0.38;;;;;;;20.34;47.91;101120.25;5056160;28;20031;-29
2021/06/04 10:56:00;;;;;;;1.48;0.73;;;;;;;20.31;47.93;101117.66;5043887;28;20040;-30
2021/06/04 10:58:29;;;;;;;0.68;0.30;;;;;;;20.29;47.83;101119.47;5069681;28;20024;-31
2021/06/04 11:01:00;;;;;;;0.00;0.00;;;;;;;20.29;47.74;101120.34;5061752;28;20025;-31
2021/06/04 11:03:52;;;;;;;0.08;0.08;;;;;;;20.24;48.31;101116.91;5073235;28;20028;-30
2021/06/04 11:06:23;;;;;;;0.30;0.30;;;;;;;20.35;47.62;101128.19;5052924;28;20029;-33
2021/06/04 11:08:50;;;;;;;3.10;0.30;;;;;;;20.24;47.97;101130.16;5040975;28;20473;-31
2021/06/04 11:11:32;;;;;;;0.00;0.00;;;;;;;20.26;48.00;101127.47;5071594;28;20367;-30
2021/06/04 11:13:58;;;;;;;0.00;0.00;;;;;;;20.25;47.94;101125.75;5066294;28;20033;-30
2021/06/04 11:16:55;;;;;;;0.13;0.13;;;;;;;20.20;48.05;101117.84;5075804;28;20024;-31
2021/06/04 11:19:37;;;;;;;0.40;0.28;;;;;;;20.22;47.98;101124.00;5060382;28;20024;-31
2021/06/04 11:22:11;;;;;;;0.95;0.50;;;;;;;20.26;47.85;101130.13;5075551;28;20021;-30
2021/06/04 11:24:46;;;;;;;0.93;0.55;;;;;;;20.20;48.03;101125.81;5067409;28;20025;-30
2021/06/04 11:27:35;;;;;;;0.00;0.00;;;;;;;20.19;47.99;101132.03;5070919;28;20051;-30
2021/06/04 11:30:02;;;;;;;1.55;0.28;;;;;;;20.13;48.12;101140.06;5069205;28;20048;-30
2021/06/04 11:32:53;;;;;;;0.00;0.00;;;;;;;20.18;48.10;101140.91;5054795;28;20025;-30
2021/06/04 11:35:22;;;;;;;0.55;0.43;;;;;;;20.14;48.09;101144.50;5066467;28;20059;-30
2021/06/04 11:38:05;;;;;;;0.20;0.20;;;;;;;20.13;48.02;101140.97;5053260;28;20031;-30
2021/06/04 11:40:38;;;;;;;2.83;0.75;;;;;;;20.07;48.40;101137.53;5060592;28;20492;-32
2021/06/04 11:43:17;;;;;;;1.40;0.60;;;;;;;20.12;48.25;101139.19;5059713;28;20484;-31
2021/06/04 11:45:44;;;;;;;0.22;0.22;;;;;;;20.10;48.04;101141.03;5059250;28;20036;-30
2021/06/04 11:48:26;;;;;;;11.70;0.10;;;;;;;20.13;48.19;101140.06;5055137;28;20383;-29